Pagina principale
METAR-TAF:

METAR-TAF

Aeroporti :

Aeroporto Internazionale di Baghdad

Baghdad, Iraq

latitudine: 33-15-45N, longitudine: 44-14-04E, altezza: 35 m

Osservazione

Il bollettino è stato emesso 11 minuti fa, alle 17:30 UTC
Vento 5 kt da ovest/sud-ovest
Temperature 35°C
Umidità 20%
Pressione 998 hPa
Visibilità 10 km o più
nessuna nube inferiore a 1500 m e nessun cumulonembo

METAR: ORBI 141730Z 25005KT CAVOK 35/09 Q0998

Ora: 20:41 (17:41 UTC)

Previsione

Il bollettino è stato emesso 1 ora e 41 minuti fa, alle 16:00 UTC
Previsione valida dal 14 alle 18 UTC al 15 alle 18 UTC
Vento 10 kt da ovest/nord-ovest
Visibilità: 7000 m

TAF: ORBI 141600Z 1418/1518 30010KT 7000 NSC

Osservazioni e previsioni meteorologiche di più di 4000 aeroporti (messaggi METAR e TAF).

Le stazioni disponibili sono rappresentate dai dischi gialli e rossi sulla carta.

Puntare il mouse per vedere il nome della stazione.

Clicca sopra per visualizzare le osservazioni e previsioni meteorologiche.

Per cambiare la mappa : fare clic sui pulsanti verdi con una croce nera per ingrandire, il pulsante verde con un trattino per diminuire, o sulla freccia verde per le mappe adiacenti.


METAR-TAF: